createdAt,value
2018-08-31T00:01:24.164Z,701.10
2018-08-31T00:05:46.678Z,703.97
2018-08-31T00:10:53.619Z,455.73
2018-08-31T00:13:32.060Z,261.83
2018-08-31T00:16:12.253Z,350.63
2018-08-31T00:18:52.337Z,463.37
2018-08-31T00:21:32.481Z,484.67
2018-08-31T00:24:24.414Z,343.67
2018-08-31T00:27:14.979Z,283.40
2018-08-31T00:30:05.747Z,253.47
2018-08-31T00:38:04.337Z,278.60
2018-08-31T00:43:01.995Z,257.00
2018-08-31T00:45:41.783Z,242.37
2018-08-31T00:48:20.322Z,217.60
2018-08-31T00:50:59.198Z,161.97
2018-08-31T00:53:39.081Z,205.53
2018-08-31T00:56:18.827Z,252.30
2018-08-31T00:58:56.980Z,197.27
2018-08-31T01:01:36.210Z,302.97
2018-08-31T01:04:14.400Z,436.73
2018-08-31T01:06:53.024Z,539.60
2018-08-31T01:09:32.022Z,633.40
2018-08-31T01:12:11.535Z,740.83
2018-08-31T01:14:50.423Z,710.43
2018-08-31T01:17:30.880Z,718.10
2018-08-31T01:20:10.023Z,767.20
2018-08-31T01:22:49.058Z,582.47
2018-08-31T01:25:28.564Z,500.70
2018-08-31T01:28:07.547Z,532.27
2018-08-31T01:30:46.098Z,532.47
2018-08-31T01:33:24.803Z,537.73
2018-08-31T01:36:03.781Z,638.80
2018-08-31T01:38:43.845Z,686.83
2018-08-31T01:41:22.377Z,711.90
2018-08-31T01:44:01.935Z,638.47
2018-08-31T01:46:40.280Z,822.47
2018-08-31T01:49:20.319Z,788.70
2018-08-31T01:52:00.144Z,833.00
2018-08-31T01:54:38.820Z,853.13
2018-08-31T01:57:17.861Z,844.43
2018-08-31T01:59:58.184Z,710.17
2018-08-31T02:02:38.700Z,830.70
2018-08-31T02:05:19.038Z,850.80
2018-08-31T02:07:57.822Z,900.50
2018-08-31T02:10:37.213Z,893.87
2018-08-31T02:13:16.120Z,843.13
2018-08-31T02:15:55.844Z,832.20
2018-08-31T02:18:35.117Z,761.90
2018-08-31T02:21:13.002Z,798.10
2018-08-31T02:23:51.976Z,804.70
2018-08-31T02:26:30.882Z,750.07
2018-08-31T02:29:09.884Z,639.07
2018-08-31T02:31:47.803Z,739.53
2018-08-31T02:34:26.322Z,750.53
2018-08-31T02:37:04.884Z,778.10
2018-08-31T02:39:45.480Z,748.83
2018-08-31T02:42:26.596Z,781.47
2018-08-31T02:45:07.040Z,753.47
2018-08-31T02:47:49.619Z,722.73
2018-08-31T02:50:32.769Z,866.00
2018-08-31T02:53:14.700Z,688.40
2018-08-31T02:55:55.781Z,760.33
2018-08-31T02:58:36.198Z,800.80
2018-08-31T03:01:15.702Z,695.03
2018-08-31T03:03:56.103Z,776.20
2018-08-31T03:06:35.062Z,851.90
2018-08-31T03:09:14.322Z,850.73
2018-08-31T03:11:52.662Z,811.40
2018-08-31T03:14:35.538Z,824.87
2018-08-31T03:17:18.161Z,768.20
2018-08-31T03:19:59.702Z,793.90
2018-08-31T03:22:37.964Z,738.27
2018-08-31T03:25:18.019Z,792.00
2018-08-31T03:27:58.425Z,830.93
2018-08-31T03:30:38.182Z,753.00
2018-08-31T03:33:19.765Z,625.80
2018-08-31T03:36:14.659Z,796.50
2018-08-31T03:38:54.896Z,778.00
2018-08-31T03:41:32.727Z,781.20
2018-08-31T03:44:12.524Z,741.10
2018-08-31T03:46:53.925Z,717.60
2018-08-31T03:49:34.582Z,708.30
2018-08-31T03:52:13.118Z,678.57
2018-08-31T03:54:53.655Z,560.77
2018-08-31T03:57:36.216Z,676.83
2018-08-31T04:00:17.279Z,758.87
2018-08-31T04:02:59.476Z,744.33
2018-08-31T04:05:41.806Z,760.33
2018-08-31T04:08:20.148Z,755.37
2018-08-31T04:10:58.940Z,802.77
2018-08-31T04:13:38.638Z,767.73
2018-08-31T04:16:19.119Z,710.27
2018-08-31T04:18:59.043Z,590.27
2018-08-31T04:21:41.159Z,518.80
2018-08-31T04:24:22.078Z,567.67
2018-08-31T04:27:01.382Z,541.10
2018-08-31T04:29:40.634Z,545.97
2018-08-31T04:32:21.822Z,658.27
2018-08-31T04:35:01.507Z,678.27
2018-08-31T04:37:41.641Z,623.57
2018-08-31T04:40:24.004Z,593.97
2018-08-31T04:43:05.541Z,411.73
2018-08-31T04:45:45.319Z,260.37
2018-08-31T04:48:25.580Z,230.20
2018-08-31T04:51:06.361Z,250.27
2018-08-31T04:53:47.401Z,287.07
2018-08-31T04:56:26.658Z,187.53
2018-08-31T04:59:09.759Z,201.60
2018-08-31T05:01:54.906Z,192.33
2018-08-31T05:04:34.040Z,262.07
2018-08-31T05:07:17.418Z,290.83
2018-08-31T05:09:58.217Z,369.33
2018-08-31T05:12:42.822Z,394.97
2018-08-31T05:15:26.774Z,364.47
2018-08-31T05:18:08.340Z,365.00
2018-08-31T05:20:52.824Z,437.37
2018-08-31T05:23:35.619Z,462.17
2018-08-31T05:26:14.902Z,452.73
2018-08-31T05:28:53.778Z,466.73
2018-08-31T05:31:33.258Z,465.67
2018-08-31T05:34:17.724Z,471.23
2018-08-31T05:37:00.602Z,459.07
2018-08-31T05:39:45.134Z,482.93
2018-08-31T05:42:30.642Z,455.27
2018-08-31T05:45:15.019Z,500.00
2018-08-31T05:47:56.779Z,509.03
2018-08-31T05:50:36.640Z,413.20
2018-08-31T05:53:19.563Z,468.67
2018-08-31T05:55:58.260Z,377.37
2018-08-31T05:58:43.698Z,456.57
2018-08-31T06:01:23.159Z,245.80
2018-08-31T06:04:05.580Z,161.07
2018-08-31T06:06:46.545Z,128.40
2018-08-31T06:09:28.218Z,175.23
2018-08-31T06:12:08.598Z,225.20
2018-08-31T06:14:48.825Z,310.47
2018-08-31T06:17:31.021Z,430.87
2018-08-31T06:20:10.721Z,282.73
2018-08-31T06:22:50.118Z,338.60
2018-08-31T06:25:30.256Z,260.17
2018-08-31T06:28:10.520Z,366.00
2018-08-31T06:30:55.280Z,281.27
2018-08-31T06:33:35.881Z,211.93
2018-08-31T06:36:17.620Z,119.77
2018-08-31T06:39:00.671Z,133.17
2018-08-31T06:41:46.215Z,312.10
2018-08-31T06:44:28.500Z,234.03
2018-08-31T06:47:09.307Z,196.03
2018-08-31T06:49:50.465Z,120.37
2018-08-31T06:52:32.876Z,330.40
2018-08-31T06:55:12.517Z,329.80
2018-08-31T06:57:52.678Z,598.63
2018-08-31T07:00:30.305Z,535.03
2018-08-31T07:03:10.637Z,847.87
2018-08-31T07:05:54.119Z,907.43
2018-08-31T07:08:32.858Z,961.10
2018-08-31T07:11:12.762Z,938.33
2018-08-31T07:13:52.082Z,1082.03
2018-08-31T07:16:34.040Z,1035.23
2018-08-31T07:19:14.403Z,1086.57
2018-08-31T07:21:54.882Z,1036.97
2018-08-31T07:25:00.848Z,977.73
2018-08-31T07:27:40.396Z,707.23
2018-08-31T07:30:19.377Z,892.20
2018-08-31T07:32:59.939Z,697.70
2018-08-31T07:35:38.045Z,750.37
2018-08-31T07:38:18.461Z,771.03
2018-08-31T07:40:57.004Z,265.77
2018-08-31T07:43:35.461Z,72.53
2018-08-31T07:46:14.145Z,106.37
2018-08-31T07:48:53.400Z,187.47
2018-08-31T07:51:33.120Z,140.53
2018-08-31T07:54:12.443Z,232.50
2018-08-31T07:56:51.979Z,221.27
2018-08-31T07:59:32.022Z,580.23
2018-08-31T08:02:15.255Z,126.13
2018-08-31T08:04:54.684Z,800.17
2018-08-31T08:07:38.341Z,1078.70
2018-08-31T08:10:19.339Z,1117.80
2018-08-31T08:13:07.816Z,970.47
2018-08-31T08:15:49.918Z,1465.33
2018-08-31T08:18:30.626Z,1465.70
2018-08-31T08:21:13.130Z,1821.27
2018-08-31T08:23:52.582Z,1726.17
2018-08-31T08:26:30.497Z,994.43
2018-08-31T08:29:11.721Z,1547.63
2018-08-31T08:31:52.426Z,1725.53
2018-08-31T08:34:36.059Z,1392.07
2018-08-31T08:37:17.783Z,975.33
2018-08-31T08:39:58.545Z,639.30
2018-08-31T08:42:39.624Z,1303.50
2018-08-31T08:45:18.942Z,1348.17
2018-08-31T08:47:59.567Z,1388.13
2018-08-31T08:50:39.601Z,1445.63
2018-08-31T08:53:19.746Z,1415.23
2018-08-31T08:56:03.006Z,1192.20
2018-08-31T08:58:46.322Z,1226.63
2018-08-31T09:01:30.709Z,1355.50
2018-08-31T09:04:10.980Z,1172.27
2018-08-31T09:06:51.945Z,1373.83
2018-08-31T09:09:35.360Z,1093.53
2018-08-31T09:12:17.008Z,488.63
2018-08-31T09:14:56.185Z,1590.63
2018-08-31T09:17:36.940Z,1395.80
2018-08-31T09:20:20.867Z,1287.23
2018-08-31T09:23:00.441Z,1176.63
2018-08-31T09:25:44.718Z,1083.63
2018-08-31T09:28:25.840Z,1091.97
2018-08-31T09:31:05.302Z,1165.83
2018-08-31T09:33:45.360Z,1145.23
2018-08-31T09:36:27.383Z,1188.90
2018-08-31T09:39:05.718Z,1059.53
2018-08-31T09:41:47.402Z,294.30
2018-08-31T09:44:26.584Z,456.17
2018-08-31T09:47:06.602Z,843.20
2018-08-31T09:49:44.886Z,1892.87
2018-08-31T09:52:26.841Z,1999.90
2018-08-31T09:55:06.678Z,1999.90
2018-08-31T09:57:54.480Z,1999.90
2018-08-31T10:00:35.881Z,1999.90
2018-08-31T10:03:20.523Z,1805.67
2018-08-31T10:06:05.098Z,1666.07
2018-08-31T10:08:44.641Z,1487.10
2018-08-31T10:11:24.586Z,1480.30
2018-08-31T10:14:06.228Z,795.40
2018-08-31T10:16:47.477Z,1848.33
2018-08-31T10:19:30.223Z,1399.83
2018-08-31T10:22:08.480Z,1588.60
2018-08-31T10:24:52.938Z,1999.90
2018-08-31T10:27:34.823Z,1732.53
2018-08-31T10:30:17.863Z,1836.47
2018-08-31T10:32:56.700Z,1537.77
2018-08-31T10:35:40.185Z,1543.93
2018-08-31T10:38:18.800Z,832.40
2018-08-31T10:41:01.365Z,1352.13
2018-08-31T10:43:42.799Z,679.70
2018-08-31T10:46:31.373Z,765.43
2018-08-31T10:49:09.258Z,678.87
2018-08-31T10:51:49.137Z,644.00
2018-08-31T10:54:30.602Z,1638.20
2018-08-31T10:57:09.124Z,1999.90
2018-08-31T10:59:50.260Z,1999.90
2018-08-31T11:02:35.981Z,1999.90
2018-08-31T11:05:15.220Z,1999.90
2018-08-31T11:07:59.080Z,1999.90
2018-08-31T11:10:46.160Z,1999.90
2018-08-31T11:13:24.017Z,1999.90
2018-08-31T11:16:03.744Z,1999.90
2018-08-31T11:18:45.295Z,1999.90
2018-08-31T11:21:23.666Z,1999.90
2018-08-31T11:24:05.161Z,1999.90
2018-08-31T11:26:53.057Z,1999.90
2018-08-31T11:29:32.983Z,1999.90
2018-08-31T11:32:21.661Z,1999.90
2018-08-31T11:35:03.023Z,1999.90
2018-08-31T11:37:46.662Z,1999.90
2018-08-31T11:40:26.519Z,1980.53
2018-08-31T11:43:05.701Z,1999.90
2018-08-31T11:45:47.542Z,1999.90
2018-08-31T11:48:29.642Z,1999.90
2018-08-31T11:51:08.640Z,1999.90
2018-08-31T11:53:49.222Z,1999.90
2018-08-31T11:56:32.261Z,1628.20
2018-08-31T11:59:16.937Z,1473.13
2018-08-31T12:01:59.200Z,1999.90
2018-08-31T12:04:39.916Z,1999.90
2018-08-31T12:07:22.801Z,1999.90
2018-08-31T12:10:05.700Z,1999.90
2018-08-31T12:12:47.444Z,1999.90
2018-08-31T12:15:27.767Z,1999.90
2018-08-31T12:18:07.100Z,1999.90
2018-08-31T12:20:53.834Z,1999.90
2018-08-31T12:23:33.884Z,1850.93
2018-08-31T12:26:20.403Z,878.20
2018-08-31T12:28:59.925Z,1381.23
2018-08-31T12:31:37.382Z,1266.93
2018-08-31T12:34:16.066Z,1347.67
2018-08-31T12:36:59.282Z,1140.90
2018-08-31T12:39:39.644Z,1287.13
2018-08-31T12:42:18.598Z,1158.83
2018-08-31T12:45:01.000Z,1063.17
2018-08-31T12:47:43.082Z,1570.70
2018-08-31T12:50:21.636Z,1999.90
2018-08-31T12:52:59.857Z,1999.90
2018-08-31T12:55:38.439Z,992.50
2018-08-31T12:58:19.382Z,1165.43
2018-08-31T13:00:59.222Z,1132.40
2018-08-31T13:03:41.179Z,1304.47
2018-08-31T13:06:22.915Z,1448.23
2018-08-31T13:09:03.902Z,1577.07
2018-08-31T13:11:45.540Z,1294.50
2018-08-31T13:14:25.641Z,1563.73
2018-08-31T13:17:07.488Z,1555.17
2018-08-31T13:19:48.664Z,1606.63
2018-08-31T13:22:29.058Z,1609.80
2018-08-31T13:25:16.277Z,1131.50
2018-08-31T13:27:59.060Z,1281.90
2018-08-31T13:30:45.587Z,1361.93
2018-08-31T13:33:23.685Z,1204.57
2018-08-31T13:36:09.783Z,1164.10
2018-08-31T13:38:49.024Z,1095.13
2018-08-31T13:41:30.497Z,1260.87
2018-08-31T13:44:11.724Z,650.23
2018-08-31T13:46:58.039Z,1184.67
2018-08-31T13:49:35.740Z,1042.43
2018-08-31T13:52:22.042Z,482.30
2018-08-31T13:55:05.087Z,588.80
2018-08-31T13:57:48.007Z,1019.03
2018-08-31T14:00:30.281Z,336.13
2018-08-31T14:03:13.995Z,555.97
2018-08-31T14:05:53.101Z,768.50
2018-08-31T14:08:32.359Z,664.13
2018-08-31T14:11:15.123Z,837.13
2018-08-31T14:13:54.426Z,750.93
2018-08-31T14:16:39.803Z,638.27
2018-08-31T14:19:20.266Z,782.47
2018-08-31T14:22:04.742Z,836.37
2018-08-31T14:24:47.200Z,1128.00
2018-08-31T14:27:28.399Z,1053.00
2018-08-31T14:30:10.021Z,211.50
2018-08-31T14:32:48.735Z,849.47
2018-08-31T14:35:27.165Z,714.90
2018-08-31T14:38:06.318Z,333.40
2018-08-31T14:40:48.387Z,433.60
2018-08-31T14:43:33.598Z,649.77
2018-08-31T14:46:14.566Z,560.53
2018-08-31T14:48:56.765Z,551.43
2018-08-31T14:51:41.407Z,453.37
2018-08-31T14:54:25.997Z,767.47
2018-08-31T14:57:10.818Z,622.07
2018-08-31T14:59:48.217Z,494.77
2018-08-31T15:02:27.919Z,721.57
2018-08-31T15:05:08.722Z,1053.30
2018-08-31T15:07:50.506Z,329.30
2018-08-31T15:10:29.644Z,790.23
2018-08-31T15:13:10.656Z,616.57
2018-08-31T15:15:56.265Z,507.23
2018-08-31T15:18:36.221Z,433.27
2018-08-31T15:21:16.460Z,377.13
2018-08-31T15:23:56.182Z,752.67
2018-08-31T15:26:41.359Z,1099.63
2018-08-31T15:29:22.124Z,1119.57
2018-08-31T15:32:02.460Z,1170.77
2018-08-31T15:34:47.699Z,1209.53
2018-08-31T15:37:26.385Z,1255.77
2018-08-31T15:40:05.643Z,1200.97
2018-08-31T15:42:46.507Z,1317.00
2018-08-31T15:45:28.242Z,1296.80
2018-08-31T15:48:08.738Z,1064.93
2018-08-31T15:50:49.339Z,1224.27
2018-08-31T15:53:32.116Z,1279.93
2018-08-31T15:56:12.424Z,1208.93
2018-08-31T15:58:54.765Z,1331.63
2018-08-31T16:01:38.382Z,1307.10
2018-08-31T16:04:18.282Z,1218.27
2018-08-31T16:06:56.966Z,1175.20
2018-08-31T16:09:39.803Z,1210.03
2018-08-31T16:12:18.711Z,1104.07
2018-08-31T16:15:00.681Z,882.20
2018-08-31T16:17:42.198Z,1180.03
2018-08-31T16:20:28.126Z,973.37
2018-08-31T16:23:09.675Z,989.77
2018-08-31T16:25:51.558Z,1162.03
2018-08-31T16:28:34.020Z,796.00
2018-08-31T16:31:14.566Z,1012.17
2018-08-31T16:33:52.198Z,967.43
2018-08-31T16:36:30.958Z,697.30
2018-08-31T16:39:14.099Z,323.00
2018-08-31T16:41:53.801Z,387.10
2018-08-31T16:44:31.974Z,237.17
2018-08-31T16:47:09.756Z,254.37
2018-08-31T16:49:51.439Z,143.03
2018-08-31T16:52:29.423Z,170.80
2018-08-31T16:55:14.660Z,112.17
2018-08-31T16:57:53.210Z,153.90
2018-08-31T17:00:31.241Z,113.67
2018-08-31T17:03:14.022Z,119.40
2018-08-31T17:05:52.086Z,86.17
2018-08-31T17:08:30.719Z,130.63
2018-08-31T17:11:12.198Z,173.97
2018-08-31T17:13:54.424Z,131.13
2018-08-31T17:16:32.441Z,188.33
2018-08-31T17:19:12.483Z,182.20
2018-08-31T17:21:55.545Z,246.67
2018-08-31T17:24:37.203Z,225.10
2018-08-31T17:27:19.004Z,237.00
2018-08-31T17:30:01.141Z,382.60
2018-08-31T17:32:42.701Z,337.00
2018-08-31T17:35:25.561Z,326.93
2018-08-31T17:38:04.580Z,443.87
2018-08-31T17:40:45.901Z,504.03
2018-08-31T17:43:24.100Z,228.17
2018-08-31T17:46:06.046Z,496.57
2018-08-31T17:48:43.681Z,459.87
2018-08-31T17:51:23.422Z,398.70
2018-08-31T17:54:07.889Z,406.53
2018-08-31T17:56:46.425Z,281.03
2018-08-31T17:59:23.957Z,228.50
2018-08-31T18:02:04.921Z,262.47
2018-08-31T18:04:45.659Z,397.57
2018-08-31T18:07:25.340Z,393.80
2018-08-31T18:10:06.915Z,205.53
2018-08-31T18:12:47.445Z,617.77
2018-08-31T18:15:26.993Z,715.93
2018-08-31T18:18:11.279Z,358.97
2018-08-31T18:20:49.399Z,759.50
2018-08-31T18:23:32.417Z,832.63
2018-08-31T18:26:18.742Z,907.63
2018-08-31T18:28:59.261Z,951.33
2018-08-31T18:31:42.124Z,921.90
2018-08-31T18:34:21.724Z,964.53
2018-08-31T18:37:06.583Z,939.77
2018-08-31T18:39:47.145Z,723.33
2018-08-31T18:42:25.757Z,516.07
2018-08-31T18:45:07.703Z,421.07
2018-08-31T18:47:48.857Z,366.20
2018-08-31T18:50:31.383Z,300.53
2018-08-31T18:53:09.960Z,642.97
2018-08-31T18:55:50.279Z,660.40
2018-08-31T18:58:30.802Z,847.13
2018-08-31T19:01:12.659Z,687.17
2018-08-31T19:03:51.941Z,525.37
2018-08-31T19:06:33.742Z,407.27
2018-08-31T19:09:16.905Z,713.03
2018-08-31T19:11:57.022Z,410.83
2018-08-31T19:14:35.923Z,437.87
2018-08-31T19:17:17.880Z,683.87
2018-08-31T19:19:57.377Z,474.27
2018-08-31T19:22:39.644Z,652.17
2018-08-31T19:25:18.580Z,166.93
2018-08-31T19:27:59.646Z,328.77
2018-08-31T19:30:42.239Z,345.67
2018-08-31T19:33:22.443Z,283.20
2018-08-31T19:36:02.080Z,141.77
2018-08-31T19:38:42.836Z,282.23
2018-08-31T19:41:22.160Z,496.27
2018-08-31T19:44:04.085Z,728.83
2018-08-31T19:46:45.421Z,580.80
2018-08-31T19:49:25.185Z,913.70
2018-08-31T19:52:05.098Z,881.97
2018-08-31T19:54:45.298Z,414.17
2018-08-31T19:57:25.158Z,519.13
2018-08-31T20:00:06.644Z,628.33
2018-08-31T20:02:45.301Z,319.57
2018-08-31T20:05:27.842Z,111.07
2018-08-31T20:08:07.067Z,49.70
2018-08-31T20:10:46.578Z,247.27
2018-08-31T20:13:26.867Z,343.17
2018-08-31T20:16:05.778Z,350.63
2018-08-31T20:18:44.842Z,350.60
2018-08-31T20:21:28.199Z,304.47
2018-08-31T20:24:09.241Z,373.77
2018-08-31T20:26:49.526Z,332.13
2018-08-31T20:29:28.443Z,345.70
2018-08-31T20:32:10.099Z,163.20
2018-08-31T20:34:53.160Z,240.67
2018-08-31T20:37:34.658Z,196.67
2018-08-31T20:40:14.714Z,259.13
2018-08-31T20:42:55.301Z,125.37
2018-08-31T20:45:34.275Z,236.53
2018-08-31T20:48:14.760Z,108.53
2018-08-31T20:50:52.307Z,219.43
2018-08-31T20:53:32.499Z,167.50
2018-08-31T20:56:11.861Z,142.07
2018-08-31T20:58:51.758Z,621.40
2018-08-31T21:01:32.381Z,184.17
2018-08-31T21:04:10.428Z,81.07
2018-08-31T21:06:49.565Z,200.07
2018-08-31T21:09:29.096Z,462.13
2018-08-31T21:12:08.598Z,728.43
2018-08-31T21:14:50.387Z,697.80
2018-08-31T21:17:30.104Z,799.63
2018-08-31T21:20:12.105Z,461.30
2018-08-31T21:22:52.881Z,786.80
2018-08-31T21:25:33.678Z,575.87
2018-08-31T21:28:16.161Z,649.13
2018-08-31T21:31:00.281Z,595.07
2018-08-31T21:33:39.580Z,581.43
2018-08-31T21:36:20.147Z,365.20
2018-08-31T21:38:59.864Z,214.77
2018-08-31T21:41:40.397Z,149.37
2018-08-31T21:44:21.940Z,268.17
2018-08-31T21:47:03.525Z,264.60
2018-08-31T21:49:42.282Z,201.63
2018-08-31T21:52:21.199Z,140.87
2018-08-31T21:55:03.762Z,186.00
2018-08-31T21:57:43.861Z,144.13
2018-08-31T22:00:26.657Z,148.47
2018-08-31T22:03:05.724Z,80.80
2018-08-31T22:05:43.880Z,97.83
2018-08-31T22:08:25.094Z,342.03
2018-08-31T22:11:03.402Z,170.63
2018-08-31T22:13:42.838Z,323.60
2018-08-31T22:16:21.701Z,181.00
2018-08-31T22:19:01.237Z,272.70
2018-08-31T22:21:39.458Z,208.27
2018-08-31T22:24:19.257Z,727.67
2018-08-31T22:26:58.730Z,556.77
2018-08-31T22:29:39.141Z,864.67
2018-08-31T22:32:18.962Z,731.10
2018-08-31T22:34:58.503Z,601.47
2018-08-31T22:37:37.978Z,547.07
2018-08-31T22:40:17.401Z,757.10
2018-08-31T22:42:58.683Z,311.23
2018-08-31T22:45:38.643Z,379.23
2018-08-31T22:48:23.657Z,551.23
2018-08-31T22:51:03.638Z,118.67
2018-08-31T22:53:41.903Z,203.60
2018-08-31T22:56:22.541Z,116.43
2018-08-31T22:59:01.725Z,71.73
2018-08-31T23:01:40.144Z,69.03
2018-08-31T23:04:18.282Z,122.17
2018-08-31T23:06:58.001Z,77.17
2018-08-31T23:09:36.161Z,65.53
2018-08-31T23:12:19.666Z,143.40
2018-08-31T23:14:59.157Z,154.33
2018-08-31T23:17:38.638Z,196.30
2018-08-31T23:20:19.083Z,157.17
2018-08-31T23:23:01.577Z,168.47
2018-08-31T23:25:44.385Z,327.70
2018-08-31T23:28:25.350Z,345.10
2018-08-31T23:31:04.756Z,585.30
2018-08-31T23:33:43.683Z,537.13
2018-08-31T23:36:23.741Z,1017.17
2018-08-31T23:39:03.476Z,1111.07
2018-08-31T23:41:43.043Z,1103.03
2018-08-31T23:44:25.126Z,953.70
2018-08-31T23:47:08.459Z,605.40
2018-08-31T23:49:48.100Z,595.27
2018-08-31T23:52:27.642Z,758.43
2018-08-31T23:55:08.164Z,705.33
2018-08-31T23:57:47.619Z,571.33
